Time;durP1;ratioP1;P1;durP2;ratioP2;P2;SDS_P1;SDS_P2;PMS_P1;PMS_P2;Temp;Humidity;BMP_temperature;BMP_pressure;BME280_temperature;BME280_humidity;BME280_pressure;Samples;Min_cycle;Max_cycle;Signal;HPM_P1;HPM_P2
2023/07/02 00:01:12;;;;;;;;;;;;;;;21.54;47.14;100907.09;4197049;28;19938;-64
2023/07/02 00:03:13;;;;;;;;;;;;;;;21.54;47.12;100901.75;4196656;28;20003;-64
2023/07/02 00:05:17;;;;;;;;;;;;;;;21.54;47.05;100909.78;4197330;28;19967;-64
2023/07/02 00:07:18;;;;;;;;;;;;;;;21.53;47.42;100901.84;4178154;28;19945;-63
2023/07/02 00:09:20;;;;;;;;;;;;;;;21.52;46.86;100900.16;4196995;28;19932;-64
2023/07/02 00:11:22;;;;;;;;;;;;;;;21.53;47.25;100907.19;4196975;28;19967;-64
2023/07/02 00:13:23;;;;;;;;;;;;;;;21.50;46.99;100902.94;4196835;28;20026;-65
2023/07/02 00:15:25;;;;;;;;;;;;;;;21.54;47.02;100908.91;4195657;28;19935;-64
2023/07/02 00:17:26;;;;;;;;;;;;;;;21.54;46.93;100911.56;4195001;28;19932;-64
2023/07/02 00:19:28;;;;;;;;;;;;;;;21.55;47.09;100907.94;4195719;28;20402;-64
2023/07/02 00:21:32;;;;;;;;;;;;;;;21.52;47.10;100905.50;4179261;28;19934;-65
2023/07/02 00:23:34;;;;;;;;;;;;;;;21.52;47.28;100895.66;4196595;28;19936;-65
2023/07/02 00:25:36;;;;;;;;;;;;;;;21.52;47.22;100902.84;4196883;28;19970;-65
2023/07/02 00:27:38;;;;;;;;;;;;;;;21.50;47.10;100897.59;4195798;28;20157;-64
2023/07/02 00:29:39;;;;;;;;;;;;;;;21.51;47.57;100903.81;4196929;28;19970;-65
2023/07/02 00:31:41;;;;;;;;;;;;;;;21.51;46.80;100907.31;4196602;28;20016;-65
2023/07/02 00:33:43;;;;;;;;;;;;;;;21.47;47.34;100897.84;4196486;28;19924;-63
2023/07/02 00:35:44;;;;;;;;;;;;;;;21.44;47.61;100899.91;4196083;28;19934;-63
2023/07/02 00:37:46;;;;;;;;;;;;;;;21.43;47.21;100891.00;4196258;28;20060;-63
2023/07/02 00:39:47;;;;;;;;;;;;;;;21.44;47.03;100902.59;4196570;28;20015;-62
2023/07/02 00:41:49;;;;;;;;;;;;;;;21.42;47.22;100893.81;4196802;28;19924;-63
2023/07/02 00:43:54;;;;;;;;;;;;;;;21.40;47.50;100893.94;4196320;28;20022;-63
2023/07/02 00:45:56;;;;;;;;;;;;;;;21.39;47.58;100894.91;4195562;28;19929;-64
2023/07/02 00:47:58;;;;;;;;;;;;;;;21.40;47.12;100891.28;4196348;28;19924;-64
2023/07/02 00:50:01;;;;;;;;;;;;;;;21.42;47.15;100886.63;4196489;28;20305;-64
2023/07/02 00:52:03;;;;;;;;;;;;;;;21.39;47.39;100897.59;4196683;28;19936;-64
2023/07/02 00:54:04;;;;;;;;;;;;;;;21.40;47.00;100896.63;4196429;28;19935;-63
2023/07/02 00:56:07;;;;;;;;;;;;;;;21.39;47.28;100895.75;4195730;28;19929;-65
2023/07/02 00:58:09;;;;;;;;;;;;;;;21.39;47.54;100892.25;4196386;28;19970;-61
2023/07/02 01:00:11;;;;;;;;;;;;;;;21.36;47.39;100896.00;4196188;28;19924;-62
2023/07/02 01:02:13;;;;;;;;;;;;;;;21.37;47.43;100896.84;4196508;28;20025;-63
2023/07/02 01:04:16;;;;;;;;;;;;;;;21.36;47.38;100893.34;4196458;28;19932;-64
2023/07/02 01:06:20;;;;;;;;;;;;;;;21.36;47.43;100898.69;4195541;28;19925;-64
2023/07/02 01:08:21;;;;;;;;;;;;;;;21.33;47.73;100901.59;4196292;28;20012;-64
2023/07/02 01:10:23;;;;;;;;;;;;;;;21.32;47.68;100899.88;4196011;28;19932;-63
2023/07/02 01:12:24;;;;;;;;;;;;;;;21.31;47.69;100910.72;4196498;28;19928;-64
2023/07/02 01:14:28;;;;;;;;;;;;;;;21.28;47.71;100902.94;4178312;28;19957;-64
2023/07/02 01:16:32;;;;;;;;;;;;;;;21.29;47.58;100899.28;4195596;28;20380;-62
2023/07/02 01:18:38;;;;;;;;;;;;;;;21.27;47.84;100906.59;4196288;28;19935;-63
2023/07/02 01:20:40;;;;;;;;;;;;;;;21.28;47.75;100913.66;4196182;28;19931;-64
2023/07/02 01:22:41;;;;;;;;;;;;;;;21.29;47.70;100915.31;4196317;28;19978;-63
2023/07/02 01:24:43;;;;;;;;;;;;;;;21.27;47.72;100920.78;4196181;28;19971;-65
2023/07/02 01:26:45;;;;;;;;;;;;;;;21.29;48.02;100913.50;4195348;28;20023;-64
2023/07/02 01:28:47;;;;;;;;;;;;;;;21.26;47.52;100908.38;4196001;28;19924;-64
2023/07/02 01:30:48;;;;;;;;;;;;;;;21.26;47.12;100911.06;4199424;28;19932;-63
2023/07/02 01:32:50;;;;;;;;;;;;;;;21.23;47.92;100922.03;4199522;28;19970;-64
2023/07/02 01:34:53;;;;;;;;;;;;;;;21.21;47.90;100913.25;4199269;28;20397;-64
2023/07/02 01:36:55;;;;;;;;;;;;;;;21.20;48.10;100912.41;4198507;28;19924;-64
2023/07/02 01:38:57;;;;;;;;;;;;;;;21.21;47.33;100916.75;4199324;28;19978;-63
2023/07/02 01:40:58;;;;;;;;;;;;;;;21.22;47.45;100925.66;4198996;28;20112;-64
2023/07/02 01:43:00;;;;;;;;;;;;;;;21.22;47.84;100921.16;4199502;28;20003;-64
2023/07/02 01:45:01;;;;;;;;;;;;;;;21.20;48.40;100920.44;4198971;28;20366;-63
2023/07/02 01:47:04;;;;;;;;;;;;;;;21.17;48.00;100918.00;4198067;28;19925;-63
2023/07/02 01:49:05;;;;;;;;;;;;;;;21.18;47.73;100914.34;4198892;28;19932;-64
2023/07/02 01:51:07;;;;;;;;;;;;;;;21.19;47.66;100910.72;4198982;28;20010;-63
2023/07/02 01:53:08;;;;;;;;;;;;;;;21.19;47.58;100925.88;4199091;28;20370;-64
2023/07/02 01:55:10;;;;;;;;;;;;;;;21.17;47.62;100926.00;4199122;28;20164;-64
2023/07/02 01:57:11;;;;;;;;;;;;;;;21.17;48.23;100918.00;4197866;28;20015;-65
2023/07/02 01:59:13;;;;;;;;;;;;;;;21.16;47.89;100920.78;4198883;28;20381;-64
2023/07/02 02:01:14;;;;;;;;;;;;;;;21.15;47.63;100922.59;4198554;28;19935;-64
2023/07/02 02:03:16;;;;;;;;;;;;;;;21.14;48.25;100918.25;4198902;28;19925;-65
2023/07/02 02:05:17;;;;;;;;;;;;;;;21.13;48.61;100916.53;4198997;28;19930;-63
2023/07/02 02:07:19;;;;;;;;;;;;;;;21.12;48.25;100916.63;4196817;28;19978;-63
2023/07/02 02:09:20;;;;;;;;;;;;;;;21.10;48.43;100919.44;4198855;28;19924;-64
2023/07/02 02:11:22;;;;;;;;;;;;;;;21.09;48.12;100911.53;4199010;28;19929;-64
2023/07/02 02:13:24;;;;;;;;;;;;;;;21.09;48.59;100914.22;4198689;28;20593;-63
2023/07/02 02:15:25;;;;;;;;;;;;;;;21.11;47.82;100917.63;4198881;28;19925;-63
2023/07/02 02:17:27;;;;;;;;;;;;;;;21.12;47.71;100917.50;4197787;28;20436;-63
2023/07/02 02:19:28;;;;;;;;;;;;;;;21.11;47.79;100912.28;4198559;28;19929;-64
2023/07/02 02:21:30;;;;;;;;;;;;;;;21.09;48.73;100914.22;4198709;28;20420;-64
2023/07/02 02:23:37;;;;;;;;;;;;;;;21.08;48.15;100918.69;4198779;28;19928;-63
2023/07/02 02:25:38;;;;;;;;;;;;;;;21.09;48.05;100922.22;4198585;28;20011;-63
2023/07/02 02:27:40;;;;;;;;;;;;;;;21.08;48.58;100923.19;4197261;28;20382;-64
2023/07/02 02:29:41;;;;;;;;;;;;;;;21.04;48.54;100926.09;4198624;28;19971;-64
2023/07/02 02:31:43;;;;;;;;;;;;;;;21.02;48.74;100919.16;4198396;28;19931;-63
2023/07/02 02:33:45;;;;;;;;;;;;;;;21.03;48.70;100923.53;4198558;28;19928;-64
2023/07/02 02:35:52;;;;;;;;;;;;;;;20.99;48.35;100922.94;4198749;28;19924;-63
2023/07/02 02:38:01;;;;;;;;;;;;;;;21.01;48.34;100914.78;4197335;28;19925;-63
2023/07/02 02:40:02;;;;;;;;;;;;;;;21.01;48.21;100920.13;4198158;28;20390;-63
2023/07/02 02:42:04;;;;;;;;;;;;;;;20.99;48.94;100922.09;4198176;28;20377;-64
2023/07/02 02:44:05;;;;;;;;;;;;;;;20.97;49.04;100913.31;4198322;28;19928;-63
2023/07/02 02:46:07;;;;;;;;;;;;;;;20.84;48.51;100894.69;4197972;28;19978;-63
2023/07/02 02:48:13;;;;;;;;;;;;;;;20.93;48.98;100920.72;4197761;28;19925;-64
2023/07/02 02:50:15;;;;;;;;;;;;;;;20.93;49.20;100919.88;4198268;28;20020;-64
2023/07/02 02:52:18;;;;;;;;;;;;;;;20.94;48.72;100926.94;4197950;28;19939;-64
2023/07/02 02:54:19;;;;;;;;;;;;;;;20.94;48.43;100926.94;4198252;28;19931;-64
2023/07/02 02:56:21;;;;;;;;;;;;;;;20.95;48.78;100925.94;4197202;28;20382;-64
2023/07/02 02:58:23;;;;;;;;;;;;;;;20.95;48.87;100918.78;4197907;28;19970;-64
2023/07/02 03:00:24;;;;;;;;;;;;;;;20.93;48.76;100930.56;4198126;28;19928;-65
2023/07/02 03:02:26;;;;;;;;;;;;;;;20.93;48.82;100928.75;4198006;28;19951;-64
2023/07/02 03:04:27;;;;;;;;;;;;;;;20.93;48.47;100928.75;4198205;28;19967;-64
2023/07/02 03:06:29;;;;;;;;;;;;;;;20.93;48.67;100919.88;4197307;28;19929;-64
2023/07/02 03:08:31;;;;;;;;;;;;;;;20.92;49.20;100923.53;4197803;28;19924;-64
2023/07/02 03:10:32;;;;;;;;;;;;;;;20.91;49.12;100922.66;4197509;28;20036;-64
2023/07/02 03:12:34;;;;;;;;;;;;;;;20.90;49.06;100927.16;4197916;28;19924;-64
2023/07/02 03:14:36;;;;;;;;;;;;;;;20.88;48.55;100928.25;4198049;28;20305;-64
2023/07/02 03:16:37;;;;;;;;;;;;;;;20.90;49.33;100937.84;4197111;28;20011;-64
2023/07/02 03:18:39;;;;;;;;;;;;;;;20.87;49.15;100934.56;4197482;28;19933;-64
2023/07/02 03:20:40;;;;;;;;;;;;;;;20.85;49.23;100932.00;4180154;28;20291;-64
2023/07/02 03:22:43;;;;;;;;;;;;;;;20.84;49.05;100922.28;4197822;28;19928;-65
2023/07/02 03:24:45;;;;;;;;;;;;;;;20.84;48.99;100929.44;4179766;28;19979;-63
2023/07/02 03:26:49;;;;;;;;;;;;;;;20.83;49.33;100935.78;4196805;28;20385;-63
2023/07/02 03:28:51;;;;;;;;;;;;;;;20.84;49.29;100941.00;4197544;28;19924;-64
2023/07/02 03:30:53;;;;;;;;;;;;;;;20.84;49.19;100938.31;4197668;28;19925;-64
2023/07/02 03:32:54;;;;;;;;;;;;;;;20.86;48.93;100944.41;4197773;28;19939;-64
2023/07/02 03:34:56;;;;;;;;;;;;;;;20.83;48.82;100941.97;4197170;28;19982;-64
2023/07/02 03:36:57;;;;;;;;;;;;;;;20.85;49.15;100947.19;4196512;28;19925;-64
2023/07/02 03:38:59;;;;;;;;;;;;;;;20.83;48.47;100951.81;4197285;28;20023;-64
2023/07/02 03:41:00;;;;;;;;;;;;;;;20.85;48.83;100945.38;4186062;28;20283;-64
2023/07/02 03:43:02;;;;;;;;;;;;;;;20.82;48.59;100950.94;4197520;28;19931;-65
2023/07/02 03:45:03;;;;;;;;;;;;;;;20.82;48.81;100956.28;4197353;28;20019;-65
2023/07/02 03:47:07;;;;;;;;;;;;;;;20.82;48.68;100960.78;4196097;28;19924;-64
2023/07/02 03:49:08;;;;;;;;;;;;;;;20.70;49.12;100949.16;4196939;28;19925;-65
2023/07/02 03:51:12;;;;;;;;;;;;;;;20.78;49.17;100970.00;4197087;28;19964;-65
2023/07/02 03:53:14;;;;;;;;;;;;;;;20.78;49.40;100965.53;4196765;28;19939;-65
2023/07/02 03:55:15;;;;;;;;;;;;;;;20.79;49.27;100967.22;4196838;28;19931;-63
2023/07/02 03:57:17;;;;;;;;;;;;;;;20.76;49.47;100972.78;4196272;28;19924;-64
2023/07/02 03:59:18;;;;;;;;;;;;;;;20.77;49.09;100971.81;4197132;28;19929;-63
2023/07/02 04:01:20;;;;;;;;;;;;;;;20.77;49.33;100969.16;4197006;28;19951;-64
2023/07/02 04:03:21;;;;;;;;;;;;;;;20.75;49.34;100973.75;4197139;28;19924;-63
2023/07/02 04:05:23;;;;;;;;;;;;;;;20.77;49.10;100977.19;4197087;28;19924;-63
2023/07/02 04:07:24;;;;;;;;;;;;;;;20.76;49.20;100975.47;4195766;28;19991;-64
2023/07/02 04:09:26;;;;;;;;;;;;;;;20.72;49.56;100974.00;4196695;28;19982;-63
2023/07/02 04:11:32;;;;;;;;;;;;;;;20.72;49.50;100977.50;4196962;28;19924;-64
2023/07/02 04:13:34;;;;;;;;;;;;;;;20.73;49.25;100976.56;4197017;28;19925;-65
2023/07/02 04:15:36;;;;;;;;;;;;;;;20.73;49.26;100975.72;4196918;28;19929;-64
2023/07/02 04:17:37;;;;;;;;;;;;;;;20.74;49.16;100974.72;4195654;28;19940;-64
2023/07/02 04:19:39;;;;;;;;;;;;;;;20.77;49.17;100981.66;4179241;28;19987;-63
2023/07/02 04:21:40;;;;;;;;;;;;;;;20.75;48.79;100976.44;4196910;28;19931;-64
2023/07/02 04:23:42;;;;;;;;;;;;;;;20.76;49.12;100977.28;4196373;28;19925;-64
2023/07/02 04:25:44;;;;;;;;;;;;;;;20.74;48.67;100982.72;4196404;28;19977;-64
2023/07/02 04:28:05;;;;;;;;;;;;;;;20.74;48.98;100990.75;4195573;28;19936;-64
2023/07/02 04:30:08;;;;;;;;;;;;;;;20.74;49.12;100986.28;4196499;28;19925;-64
2023/07/02 04:32:09;;;;;;;;;;;;;;;20.74;49.11;100990.75;4195609;28;19963;-64
2023/07/02 04:34:11;;;;;;;;;;;;;;;20.74;49.12;100994.28;4196769;28;19935;-64
2023/07/02 04:36:12;;;;;;;;;;;;;;;20.72;49.64;100984.69;4196742;28;20019;-63
2023/07/02 04:38:14;;;;;;;;;;;;;;;20.77;48.92;100997.69;4195590;28;19928;-64
2023/07/02 04:40:16;;;;;;;;;;;;;;;20.78;48.89;101002.06;4196748;28;20306;-64
2023/07/02 04:42:18;;;;;;;;;;;;;;;20.76;48.95;100998.69;4178817;28;20074;-64
2023/07/02 04:44:21;;;;;;;;;;;;;;;20.76;49.63;101001.34;4196951;28;20327;-63
2023/07/02 04:46:23;;;;;;;;;;;;;;;20.74;49.24;101002.31;4196293;28;19931;-63
2023/07/02 04:48:25;;;;;;;;;;;;;;;20.76;48.59;101002.19;4198674;28;20360;-63
2023/07/02 04:50:26;;;;;;;;;;;;;;;20.75;48.90;101003.16;4196778;28;19936;-63
2023/07/02 04:52:28;;;;;;;;;;;;;;;20.73;49.24;101002.44;4196239;28;19928;-63
2023/07/02 04:54:30;;;;;;;;;;;;;;;20.74;49.26;101006.78;4196708;28;20374;-64
2023/07/02 04:56:31;;;;;;;;;;;;;;;20.64;48.86;100990.56;4196470;28;20109;-64
2023/07/02 04:58:33;;;;;;;;;;;;;;;20.76;48.98;101002.19;4195687;28;19924;-64
2023/07/02 05:00:34;;;;;;;;;;;;;;;20.75;48.67;101005.81;4196721;28;19968;-65
2023/07/02 05:02:36;;;;;;;;;;;;;;;20.72;49.23;101004.25;4196545;28;20015;-65
2023/07/02 05:04:37;;;;;;;;;;;;;;;20.72;48.81;101003.41;4199672;28;19925;-63
2023/07/02 05:06:39;;;;;;;;;;;;;;;20.69;49.59;100998.22;4198918;28;19936;-64
2023/07/02 05:08:40;;;;;;;;;;;;;;;20.66;49.79;100998.47;4199586;28;20016;-64
2023/07/02 05:10:43;;;;;;;;;;;;;;;20.64;49.64;101006.59;4199838;28;19960;-64
2023/07/02 05:12:46;;;;;;;;;;;;;;;20.65;49.79;101002.94;4199838;28;19928;-64
2023/07/02 05:14:47;;;;;;;;;;;;;;;20.66;49.43;101007.34;4199966;28;19963;-64
2023/07/02 05:16:49;;;;;;;;;;;;;;;20.66;49.42;101002.00;4198917;28;19924;-64
2023/07/02 05:18:51;;;;;;;;;;;;;;;20.66;49.54;101003.81;4199566;28;19960;-64
2023/07/02 05:20:52;;;;;;;;;;;;;;;20.67;49.67;101010.84;4199604;28;19962;-64
2023/07/02 05:22:54;;;;;;;;;;;;;;;20.46;48.96;100966.03;4181623;28;19925;-63
2023/07/02 05:24:55;;;;;;;;;;;;;;;20.68;49.13;101007.22;4199651;28;19924;-64
2023/07/02 05:26:57;;;;;;;;;;;;;;;20.57;49.48;100990.16;4198882;28;19931;-64
2023/07/02 05:28:59;;;;;;;;;;;;;;;20.67;49.40;101013.53;4199246;28;19924;-64
2023/07/02 05:31:00;;;;;;;;;;;;;;;20.65;49.35;101010.13;4199472;28;19924;-64
2023/07/02 05:33:02;;;;;;;;;;;;;;;20.65;49.35;101007.47;4199475;28;19931;-64
2023/07/02 05:35:03;;;;;;;;;;;;;;;20.66;49.53;101007.34;4199542;28;19950;-64
2023/07/02 05:37:05;;;;;;;;;;;;;;;20.63;49.72;101012.06;4198214;28;20019;-64
2023/07/02 05:39:07;;;;;;;;;;;;;;;20.64;49.73;101011.09;4199234;28;20291;-65
2023/07/02 05:41:08;;;;;;;;;;;;;;;20.63;49.46;101012.06;4199523;28;20002;-64
2023/07/02 05:43:10;;;;;;;;;;;;;;;20.65;49.58;101018.16;4199256;28;19974;-64
2023/07/02 05:45:11;;;;;;;;;;;;;;;20.65;49.17;101023.50;4199401;28;20019;-63
2023/07/02 05:47:13;;;;;;;;;;;;;;;20.66;49.95;101025.19;4198191;28;19963;-64
2023/07/02 05:49:14;;;;;;;;;;;;;;;20.66;49.23;101023.38;4198711;28;19932;-64
2023/07/02 05:51:25;;;;;;;;;;;;;;;20.66;49.04;101025.19;4199037;28;19994;-65
2023/07/02 05:53:27;;;;;;;;;;;;;;;20.65;49.79;101021.66;4198937;28;19928;-64
2023/07/02 05:55:28;;;;;;;;;;;;;;;20.65;49.87;101026.16;4199116;28;19956;-64
2023/07/02 05:57:30;;;;;;;;;;;;;;;20.64;49.37;101032.47;4198017;28;19925;-64
2023/07/02 05:59:31;;;;;;;;;;;;;;;20.65;49.64;101027.00;4198898;28;19924;-64
2023/07/02 06:01:33;;;;;;;;;;;;;;;20.65;49.57;101034.19;4199157;28;19930;-63
2023/07/02 06:03:34;;;;;;;;;;;;;;;20.65;49.40;101036.84;4198883;28;20015;-63
2023/07/02 06:05:36;;;;;;;;;;;;;;;20.65;49.50;101034.19;4198657;28;20397;-63
2023/07/02 06:07:38;;;;;;;;;;;;;;;20.64;49.67;101038.66;4197839;28;20019;-64
2023/07/02 06:09:40;;;;;;;;;;;;;;;20.64;49.99;101035.16;4198780;28;20027;-64
2023/07/02 06:11:42;;;;;;;;;;;;;;;20.60;49.50;101037.19;4198795;28;20287;-64
2023/07/02 06:13:43;;;;;;;;;;;;;;;20.63;49.25;101031.59;4198784;28;19935;-63
2023/07/02 06:15:46;;;;;;;;;;;;;;;20.64;49.64;101033.31;4198161;28;20016;-64
2023/07/02 06:17:48;;;;;;;;;;;;;;;20.62;49.79;101043.28;4197669;28;20431;-64
2023/07/02 06:19:50;;;;;;;;;;;;;;;20.63;49.38;101044.97;4198459;28;20329;-64
2023/07/02 06:21:51;;;;;;;;;;;;;;;20.66;49.34;101042.06;4198839;28;19978;-64
2023/07/02 06:23:53;;;;;;;;;;;;;;;20.65;49.53;101044.88;4198659;28;19925;-64
2023/07/02 06:25:58;;;;;;;;;;;;;;;20.65;49.48;101053.72;4197477;28;19936;-65
2023/07/02 06:28:00;;;;;;;;;;;;;;;20.66;49.56;101057.28;4197743;28;19928;-64
2023/07/02 06:30:02;;;;;;;;;;;;;;;20.67;49.40;101059.81;4198573;28;19924;-64
2023/07/02 06:32:04;;;;;;;;;;;;;;;20.64;49.86;101056.53;4198781;28;19935;-64
2023/07/02 06:34:06;;;;;;;;;;;;;;;20.64;49.22;101054.69;4198275;28;19990;-64
2023/07/02 06:36:08;;;;;;;;;;;;;;;20.66;49.41;101058.13;4198342;28;19968;-64
2023/07/02 06:38:13;;;;;;;;;;;;;;;20.61;49.92;101059.41;4181027;28;20349;-63
2023/07/02 06:40:14;;;;;;;;;;;;;;;20.62;49.97;101061.13;4189320;28;19928;-64
2023/07/02 06:42:16;;;;;;;;;;;;;;;20.64;49.18;101060.03;4198641;28;19931;-64
2023/07/02 06:44:17;;;;;;;;;;;;;;;20.64;49.87;101062.72;4198344;28;19928;-64
2023/07/02 06:46:19;;;;;;;;;;;;;;;20.63;50.00;101069.00;4198034;28;19973;-64
2023/07/02 06:48:21;;;;;;;;;;;;;;;20.65;49.29;101069.75;4199663;28;20449;-64
2023/07/02 06:50:23;;;;;;;;;;;;;;;20.66;49.59;101076.81;4198219;28;19956;-64
2023/07/02 06:52:25;;;;;;;;;;;;;;;20.67;49.41;101069.66;4198425;28;19932;-63
2023/07/02 06:54:26;;;;;;;;;;;;;;;20.69;49.38;101075.75;4198333;28;19971;-64
2023/07/02 06:56:28;;;;;;;;;;;;;;;20.67;49.91;101073.19;4197836;28;19972;-64
2023/07/02 06:58:30;;;;;;;;;;;;;;;20.64;50.02;101076.06;4197121;28;20031;-64
2023/07/02 07:00:35;;;;;;;;;;;;;;;20.64;49.69;101073.41;4198054;28;19928;-64
2023/07/02 07:02:36;;;;;;;;;;;;;;;20.65;50.19;101077.78;4198045;28;20034;-64
2023/07/02 07:04:38;;;;;;;;;;;;;;;20.65;49.60;101083.13;4198437;28;20353;-63
2023/07/02 07:06:40;;;;;;;;;;;;;;;20.65;49.99;101077.78;4179880;28;20007;-64
2023/07/02 07:08:41;;;;;;;;;;;;;;;20.63;49.89;101085.03;4196853;28;20004;-63
2023/07/02 07:10:45;;;;;;;;;;;;;;;20.62;50.16;101077.16;4198046;28;21204;-63
2023/07/02 07:12:47;;;;;;;;;;;;;;;20.62;50.42;101088.72;4197926;28;19931;-64
2023/07/02 07:14:48;;;;;;;;;;;;;;;20.62;50.25;101085.16;4197967;28;19929;-64
2023/07/02 07:16:50;;;;;;;;;;;;;;;20.65;50.15;101079.63;4197346;28;20416;-64
2023/07/02 07:18:52;;;;;;;;;;;;;;;20.64;50.12;101084.09;4196933;28;19928;-64
2023/07/02 07:20:53;;;;;;;;;;;;;;;20.65;49.94;101071.59;4197689;28;19925;-64
2023/07/02 07:22:55;;;;;;;;;;;;;;;20.65;50.54;101076.94;4197492;28;19928;-64
2023/07/02 07:24:57;;;;;;;;;;;;;;;20.65;50.13;101084.97;4197744;28;20015;-64
2023/07/02 07:26:58;;;;;;;;;;;;;;;20.65;50.23;101082.28;4196247;28;19928;-64
2023/07/02 07:29:00;;;;;;;;;;;;;;;20.68;50.18;101087.41;4196645;28;19931;-64
2023/07/02 07:31:01;;;;;;;;;;;;;;;20.68;50.33;101084.72;4197967;28;19956;-64
2023/07/02 07:33:03;;;;;;;;;;;;;;;20.69;50.16;101083.75;4179134;28;19953;-64
2023/07/02 07:35:04;;;;;;;;;;;;;;;20.71;50.04;101089.84;4197551;28;20308;-64
2023/07/02 07:37:06;;;;;;;;;;;;;;;20.71;49.88;101088.03;4196804;28;19928;-64
2023/07/02 07:39:09;;;;;;;;;;;;;;;20.72;49.79;101086.25;4197428;28;20393;-63
2023/07/02 07:41:10;;;;;;;;;;;;;;;20.74;49.95;101090.53;4197625;28;20393;-63
2023/07/02 07:43:12;;;;;;;;;;;;;;;20.74;50.16;101081.63;4197090;28;19924;-65
2023/07/02 07:45:13;;;;;;;;;;;;;;;20.76;50.13;101092.22;4197312;28;19931;-65
2023/07/02 07:47:15;;;;;;;;;;;;;;;20.76;50.18;101084.22;4178191;28;19948;-63
2023/07/02 07:49:16;;;;;;;;;;;;;;;20.77;50.06;101081.41;4192236;28;19936;-63
2023/07/02 07:51:18;;;;;;;;;;;;;;;20.78;50.10;101090.28;4197469;28;19981;-64
2023/07/02 07:53:20;;;;;;;;;;;;;;;20.81;50.16;101087.41;4197096;28;19925;-65
2023/07/02 07:55:21;;;;;;;;;;;;;;;20.81;49.96;101092.75;4197094;28;20007;-64
2023/07/02 07:57:23;;;;;;;;;;;;;;;20.79;49.93;101100.88;4178456;28;19928;-64
2023/07/02 07:59:24;;;;;;;;;;;;;;;20.79;50.21;101097.34;4197037;28;20424;-65
2023/07/02 08:01:26;;;;;;;;;;;;;;;20.80;49.93;101102.56;4196283;28;20023;-65
2023/07/02 08:03:28;;;;;;;;;;;;;;;20.81;50.06;101098.09;4196552;28;19929;-64
2023/07/02 08:05:30;;;;;;;;;;;;;;;20.80;49.84;101099.06;4197138;28;19924;-64
2023/07/02 08:07:32;;;;;;;;;;;;;;;20.79;50.18;101094.66;4196215;28;19924;-64
2023/07/02 08:09:33;;;;;;;;;;;;;;;20.82;50.15;101097.97;4196620;28;19970;-65
2023/07/02 08:11:35;;;;;;;;;;;;;;;20.82;50.07;101097.97;4197186;28;19925;-65
2023/07/02 08:13:36;;;;;;;;;;;;;;;20.81;50.11;101098.94;4196528;28;20015;-64
2023/07/02 08:15:38;;;;;;;;;;;;;;;20.79;49.98;101102.69;4196703;28;20118;-65
2023/07/02 08:17:39;;;;;;;;;;;;;;;20.80;49.65;101101.72;4196209;28;19924;-65
2023/07/02 08:19:41;;;;;;;;;;;;;;;20.82;50.02;101100.63;4196703;28;19924;-64
2023/07/02 08:21:43;;;;;;;;;;;;;;;20.82;50.15;101099.81;4197027;28;19925;-64
2023/07/02 08:23:44;;;;;;;;;;;;;;;20.84;49.68;101106.75;4196754;28;20007;-65
2023/07/02 08:25:46;;;;;;;;;;;;;;;20.83;49.66;101102.34;4196847;28;20031;-65
2023/07/02 08:27:47;;;;;;;;;;;;;;;20.84;49.83;101105.88;4196223;28;19924;-65
2023/07/02 08:29:49;;;;;;;;;;;;;;;20.83;49.75;101106.88;4196193;28;20038;-64
2023/07/02 08:31:50;;;;;;;;;;;;;;;20.82;49.63;101102.47;4196718;28;20360;-65
2023/07/02 08:33:52;;;;;;;;;;;;;;;20.83;49.52;101105.03;4191130;28;20420;-64
2023/07/02 08:35:53;;;;;;;;;;;;;;;20.86;49.62;101104.81;4196632;28;19963;-64
2023/07/02 08:37:56;;;;;;;;;;;;;;;20.88;49.50;101115.38;4195580;28;19924;-65
2023/07/02 08:39:58;;;;;;;;;;;;;;;20.87;49.76;101113.69;4196438;28;19947;-64
2023/07/02 08:41:59;;;;;;;;;;;;;;;20.86;49.49;101110.16;4196643;28;20389;-64
2023/07/02 08:44:04;;;;;;;;;;;;;;;20.93;49.49;101117.72;4196284;28;19981;-64
2023/07/02 08:46:07;;;;;;;;;;;;;;;20.92;49.43;101110.69;4196448;28;19931;-64
2023/07/02 08:48:10;;;;;;;;;;;;;;;20.95;49.49;101113.09;4179947;28;21460;-65
2023/07/02 08:50:13;;;;;;;;;;;;;;;20.95;49.42;101118.44;4192556;28;19925;-67
2023/07/02 08:52:14;;;;;;;;;;;;;;;20.96;49.18;101117.50;4196734;28;19924;-64
2023/07/02 08:54:19;;;;;;;;;;;;;;;20.97;49.28;101120.03;4196358;28;19947;-65
2023/07/02 08:56:20;;;;;;;;;;;;;;;20.98;49.05;101112.91;4196545;28;19978;-65
2023/07/02 08:58:22;;;;;;;;;;;;;;;21.03;48.79;101113.41;4194891;28;19932;-63
2023/07/02 09:00:23;;;;;;;;;;;;;;;21.05;48.91;101117.66;4196234;28;19928;-65
2023/07/02 09:02:32;;;;;;;;;;;;;;;21.06;48.59;101113.19;4196830;28;19963;-65
2023/07/02 09:04:33;;;;;;;;;;;;;;;21.07;48.73;101109.56;4196351;28;19931;-64
2023/07/02 09:06:35;;;;;;;;;;;;;;;21.08;48.37;101110.41;4196455;28;19950;-65
2023/07/02 09:08:37;;;;;;;;;;;;;;;21.09;48.08;101109.44;4195717;28;20026;-65
2023/07/02 09:10:38;;;;;;;;;;;;;;;21.06;48.10;101106.00;4196063;28;19929;-64
2023/07/02 09:12:40;;;;;;;;;;;;;;;21.04;48.46;101102.59;4196438;28;20033;-64
2023/07/02 09:14:41;;;;;;;;;;;;;;;21.07;48.39;101106.88;4196483;28;20032;-64
2023/07/02 09:16:43;;;;;;;;;;;;;;;21.07;48.19;101109.56;4196539;28;19936;-64
2023/07/02 09:18:54;;;;;;;;;;;;;;;21.06;47.96;101102.50;4195368;28;20019;-63
2023/07/02 09:20:56;;;;;;;;;;;;;;;21.06;47.77;101092.63;4196143;28;19956;-65
2023/07/02 09:22:57;;;;;;;;;;;;;;;21.07;47.74;101098.84;4194996;28;20378;-64
2023/07/02 09:25:00;;;;;;;;;;;;;;;21.05;47.45;101103.47;4196022;28;19929;-63
2023/07/02 09:27:02;;;;;;;;;;;;;;;21.06;47.72;101097.16;4196436;28;19928;-62
2023/07/02 09:29:03;;;;;;;;;;;;;;;21.06;47.56;101097.16;4194947;28;19932;-64
2023/07/02 09:31:05;;;;;;;;;;;;;;;21.05;47.58;101100.78;4196049;28;19963;-64
2023/07/02 09:33:07;;;;;;;;;;;;;;;21.03;47.76;101095.56;4196044;28;19928;-64
2023/07/02 09:35:09;;;;;;;;;;;;;;;21.03;47.59;101098.22;4196111;28;19936;-64
2023/07/02 09:37:10;;;;;;;;;;;;;;;21.04;47.76;101099.06;4195918;28;19959;-62
2023/07/02 09:39:26;;;;;;;;;;;;;;;21.05;47.43;101095.44;4195238;28;19930;-64
2023/07/02 09:41:27;;;;;;;;;;;;;;;21.04;47.25;101107.09;4196222;28;19924;-64
2023/07/02 09:43:30;;;;;;;;;;;;;;;21.04;47.40;101097.22;4194511;28;20397;-64
2023/07/02 09:45:32;;;;;;;;;;;;;;;21.05;47.35;101093.59;4196000;28;19929;-64
2023/07/02 09:47:37;;;;;;;;;;;;;;;21.06;47.46;101103.34;4195057;28;20397;-64
2023/07/02 09:49:39;;;;;;;;;;;;;;;21.07;47.56;101106.88;4193999;28;19925;-64
2023/07/02 09:51:41;;;;;;;;;;;;;;;21.09;47.23;101106.75;4198855;28;20302;-64
2023/07/02 09:53:43;;;;;;;;;;;;;;;21.09;46.96;101104.91;4198999;28;19924;-65
2023/07/02 09:55:44;;;;;;;;;;;;;;;21.09;47.06;101104.09;4199188;28;19996;-65
2023/07/02 09:57:46;;;;;;;;;;;;;;;21.09;46.93;101106.75;4197725;28;19924;-65
2023/07/02 09:59:48;;;;;;;;;;;;;;;21.07;46.81;101098.84;4199317;28;19940;-65
2023/07/02 10:01:50;;;;;;;;;;;;;;;21.08;47.02;101097.88;4198684;28;19933;-64
2023/07/02 10:03:51;;;;;;;;;;;;;;;21.08;46.68;101099.69;4198895;28;20019;-65
2023/07/02 10:06:01;;;;;;;;;;;;;;;21.07;46.91;101104.22;4199093;28;20344;-65
2023/07/02 10:08:13;;;;;;;;;;;;;;;21.10;46.79;101105.78;4179996;28;19940;-65
2023/07/02 10:10:25;;;;;;;;;;;;;;;21.08;46.41;101097.88;4198891;28;20016;-65
2023/07/02 10:12:28;;;;;;;;;;;;;;;21.10;46.69;101101.28;4198223;28;19967;-65
2023/07/02 10:14:42;;;;;;;;;;;;;;;21.10;46.54;101109.31;4198947;28;19975;-65
2023/07/02 10:16:50;;;;;;;;;;;;;;;21.11;46.05;101099.47;4198889;28;20313;-65
2023/07/02 10:18:52;;;;;;;;;;;;;;;21.12;45.71;101099.38;4194291;28;19931;-65
2023/07/02 10:20:53;;;;;;;;;;;;;;;21.13;46.20;101106.41;4198847;28;19956;-65
2023/07/02 10:22:55;;;;;;;;;;;;;;;21.11;46.39;101102.16;4198334;28;20042;-64
2023/07/02 10:24:59;;;;;;;;;;;;;;;21.10;46.17;101103.97;4198759;28;20274;-65
2023/07/02 10:27:02;;;;;;;;;;;;;;;21.12;46.26;101104.72;4198468;28;20370;-64